createdAt,value
2019-05-17T00:00:51.562Z,12.05
2019-05-17T00:03:23.162Z,11.85
2019-05-17T00:05:57.021Z,11.80
2019-05-17T00:08:34.379Z,12.33
2019-05-17T00:11:01.982Z,12.65
2019-05-17T00:13:33.686Z,12.30
2019-05-17T00:16:07.199Z,11.95
2019-05-17T00:18:39.253Z,12.67
2019-05-17T00:21:11.302Z,12.23
2019-05-17T00:23:42.843Z,12.80
2019-05-17T00:26:16.744Z,12.17
2019-05-17T00:28:48.803Z,13.03
2019-05-17T00:31:20.636Z,13.05
2019-05-17T00:33:52.230Z,12.03
2019-05-17T00:36:24.055Z,12.98
2019-05-17T00:38:56.769Z,11.93
2019-05-17T00:41:28.883Z,12.53
2019-05-17T00:44:00.447Z,12.05
2019-05-17T00:46:32.761Z,11.73
2019-05-17T00:49:07.180Z,12.35
2019-05-17T00:51:39.145Z,13.30
2019-05-17T00:54:11.176Z,13.32
2019-05-17T00:56:42.689Z,12.40
2019-05-17T00:59:16.843Z,12.57
2019-05-17T01:01:48.331Z,13.67
2019-05-17T01:04:20.569Z,11.70
2019-05-17T01:06:56.311Z,12.40
2019-05-17T01:09:28.068Z,13.20
2019-05-17T01:12:00.444Z,13.53
2019-05-17T01:14:32.513Z,13.43
2019-05-17T01:17:06.995Z,14.20
2019-05-17T01:19:38.581Z,13.83
2019-05-17T01:22:09.987Z,13.73
2019-05-17T01:24:41.926Z,14.27
2019-05-17T01:27:13.856Z,14.37
2019-05-17T01:29:46.604Z,14.63
2019-05-17T01:32:18.765Z,14.67
2019-05-17T01:34:50.707Z,14.93
2019-05-17T01:37:22.788Z,14.50
2019-05-17T01:39:57.246Z,14.47
2019-05-17T01:42:28.473Z,15.67
2019-05-17T01:45:00.458Z,15.70
2019-05-17T01:47:32.478Z,14.70
2019-05-17T01:50:06.836Z,14.20
2019-05-17T01:52:38.735Z,13.67
2019-05-17T01:55:11.073Z,14.57
2019-05-17T01:57:43.304Z,13.93
2019-05-17T02:00:17.485Z,14.13
2019-05-17T02:02:50.687Z,14.00
2019-05-17T02:05:22.906Z,13.93
2019-05-17T02:07:56.898Z,13.80
2019-05-17T02:10:28.507Z,13.47
2019-05-17T02:13:00.270Z,13.67
2019-05-17T02:15:31.802Z,12.87
2019-05-17T02:18:03.713Z,13.87
2019-05-17T02:20:37.308Z,13.37
2019-05-17T02:23:09.288Z,13.43
2019-05-17T02:25:41.050Z,14.00
2019-05-17T02:28:12.519Z,14.37
2019-05-17T02:30:45.424Z,14.17
2019-05-17T02:33:17.198Z,12.73
2019-05-17T02:35:49.303Z,13.77
2019-05-17T02:38:22.464Z,13.83
2019-05-17T02:40:54.384Z,13.80
2019-05-17T02:43:26.572Z,13.60
2019-05-17T02:45:58.918Z,13.60
2019-05-17T02:48:33.425Z,14.00
2019-05-17T02:51:04.103Z,13.10
2019-05-17T02:53:35.723Z,13.33
2019-05-17T02:56:07.954Z,13.23
2019-05-17T02:58:39.523Z,13.23
2019-05-17T03:01:12.676Z,13.50
2019-05-17T03:03:47.427Z,13.27
2019-05-17T03:06:22.667Z,12.90
2019-05-17T03:08:53.525Z,13.10
2019-05-17T03:11:25.601Z,12.37
2019-05-17T03:13:58.466Z,12.23
2019-05-17T03:16:33.565Z,12.70
2019-05-17T03:19:04.553Z,13.07
2019-05-17T03:21:37.649Z,12.40
2019-05-17T03:24:13.342Z,12.07
2019-05-17T03:27:02.842Z,12.77
2019-05-17T03:30:17.492Z,12.43
2019-05-17T03:32:57.598Z,12.93
2019-05-17T03:35:36.689Z,12.13
2019-05-17T03:38:14.159Z,12.67
2019-05-17T03:41:07.299Z,12.57
2019-05-17T03:43:22.970Z,13.40
2019-05-17T03:45:55.232Z,13.43
2019-05-17T03:48:26.908Z,12.93
2019-05-17T03:50:58.749Z,13.33
2019-05-17T03:53:33.513Z,12.40
2019-05-17T03:56:06.997Z,13.83
2019-05-17T03:58:38.715Z,13.20
2019-05-17T04:01:13.668Z,14.10
2019-05-17T04:03:44.499Z,13.62
2019-05-17T04:06:16.575Z,13.40
2019-05-17T04:08:48.210Z,12.98
2019-05-17T04:11:30.997Z,13.05
2019-05-17T04:13:54.563Z,12.53
2019-05-17T04:16:26.118Z,14.43
2019-05-17T04:18:57.755Z,12.93
2019-05-17T04:21:33.427Z,12.23
2019-05-17T04:24:05.130Z,11.83
2019-05-17T04:26:37.704Z,12.15
2019-05-17T04:29:13.191Z,12.33
2019-05-17T04:31:54.477Z,11.73
2019-05-17T04:34:26.754Z,12.37
2019-05-17T04:36:58.685Z,12.20
2019-05-17T04:39:32.665Z,12.25
2019-05-17T04:42:33.093Z,11.88
2019-05-17T04:45:03.668Z,11.45
2019-05-17T04:47:36.284Z,11.05
2019-05-17T04:50:12.952Z,10.48
2019-05-17T04:53:02.277Z,10.08
2019-05-17T04:55:34.097Z,9.70
2019-05-17T04:58:06.839Z,9.28
2019-05-17T05:00:38.832Z,9.70
2019-05-17T05:03:12.757Z,9.53
2019-05-17T05:05:43.828Z,8.45
2019-05-17T05:08:15.649Z,9.45
2019-05-17T05:10:47.805Z,8.88
2019-05-17T05:13:22.759Z,9.08
2019-05-17T05:15:55.147Z,9.00
2019-05-17T05:18:26.785Z,9.28
2019-05-17T05:21:05.352Z,9.53
2019-05-17T05:23:37.822Z,9.50
2019-05-17T05:26:11.859Z,9.35
2019-05-17T05:28:43.317Z,9.85
2019-05-17T05:31:15.546Z,9.75
2019-05-17T05:34:07.943Z,9.75
2019-05-17T05:36:44.216Z,10.38
2019-05-17T05:39:16.053Z,10.05
2019-05-17T05:41:48.100Z,9.68
2019-05-17T05:44:22.926Z,9.73
2019-05-17T05:46:54.453Z,9.70
2019-05-17T05:49:26.302Z,9.28
2019-05-17T05:51:57.825Z,9.18
2019-05-17T05:54:31.846Z,9.35
2019-05-17T05:57:03.386Z,9.25
2019-05-17T05:59:35.547Z,9.90
2019-05-17T06:02:07.725Z,9.20
2019-05-17T06:04:42.239Z,9.40
2019-05-17T06:07:14.003Z,8.88
2019-05-17T06:09:45.738Z,8.33
2019-05-17T06:12:23.635Z,8.60
2019-05-17T06:14:56.690Z,8.40
2019-05-17T06:17:29.066Z,8.00
2019-05-17T06:20:02.571Z,7.42
2019-05-17T06:22:34.826Z,8.15
2019-05-17T06:25:06.784Z,7.50
2019-05-17T06:27:38.884Z,7.55
2019-05-17T06:30:12.591Z,7.62
2019-05-17T06:32:44.627Z,7.30
2019-05-17T06:35:16.764Z,7.55
2019-05-17T06:37:48.502Z,7.47
2019-05-17T06:40:21.733Z,6.87
2019-05-17T06:42:54.216Z,7.35
2019-05-17T06:45:25.796Z,7.28
2019-05-17T06:47:57.785Z,7.25
2019-05-17T06:50:32.590Z,7.22
2019-05-17T06:53:12.276Z,8.00
2019-05-17T06:55:46.566Z,7.33
2019-05-17T06:58:18.155Z,7.00
2019-05-17T07:00:53.832Z,7.42
2019-05-17T07:03:25.809Z,8.95
2019-05-17T07:05:59.682Z,8.10
2019-05-17T07:08:31.529Z,7.12
2019-05-17T07:11:03.511Z,7.90
2019-05-17T07:13:50.213Z,8.43
2019-05-17T07:16:22.739Z,8.58
2019-05-17T07:18:54.203Z,8.70
2019-05-17T07:21:26.026Z,7.62
2019-05-17T07:23:59.370Z,8.75
2019-05-17T07:26:31.360Z,8.13
2019-05-17T07:29:03.695Z,7.90
2019-05-17T07:31:37.128Z,8.20
2019-05-17T07:34:09.335Z,8.85
2019-05-17T07:36:41.630Z,8.60
2019-05-17T07:39:13.243Z,9.40
2019-05-17T07:41:45.106Z,8.88
2019-05-17T07:44:20.542Z,8.25
2019-05-17T07:46:52.717Z,7.78
2019-05-17T07:49:24.820Z,8.70
2019-05-17T07:51:56.673Z,8.23
2019-05-17T07:54:30.330Z,8.03
2019-05-17T07:57:03.290Z,7.08
2019-05-17T07:59:39.729Z,7.85
2019-05-17T08:02:20.725Z,9.10
2019-05-17T08:05:10.111Z,9.60
2019-05-17T08:07:40.528Z,8.98
2019-05-17T08:10:11.976Z,8.73
2019-05-17T08:12:43.387Z,8.35
2019-05-17T08:15:15.528Z,8.35
2019-05-17T08:17:50.039Z,7.87
2019-05-17T08:20:23.606Z,7.75
2019-05-17T08:22:55.927Z,8.18
2019-05-17T08:25:27.513Z,7.85
2019-05-17T08:27:59.573Z,6.90
2019-05-17T08:30:32.908Z,8.25
2019-05-17T08:33:04.425Z,10.43
2019-05-17T08:35:40.061Z,10.03
2019-05-17T08:38:12.957Z,10.28
2019-05-17T08:40:45.041Z,9.60
2019-05-17T08:43:16.946Z,10.30
2019-05-17T08:45:50.169Z,10.28
2019-05-17T08:48:22.405Z,10.50
2019-05-17T08:50:54.479Z,11.00
2019-05-17T08:53:26.515Z,12.73
2019-05-17T08:56:00.923Z,15.55
2019-05-17T08:58:32.221Z,15.18
2019-05-17T09:01:07.281Z,16.48
2019-05-17T09:03:41.182Z,16.70
2019-05-17T09:06:14.506Z,16.20
2019-05-17T09:08:51.954Z,17.60
2019-05-17T09:11:30.109Z,16.00
2019-05-17T09:14:04.384Z,16.67
2019-05-17T09:16:36.469Z,18.07
2019-05-17T09:19:10.131Z,19.30
2019-05-17T09:21:45.594Z,18.85
2019-05-17T09:24:19.363Z,17.60
2019-05-17T09:26:51.458Z,18.27
2019-05-17T09:29:23.598Z,19.30
2019-05-17T09:31:55.103Z,19.55
2019-05-17T09:34:27.020Z,19.82
2019-05-17T09:37:00.315Z,18.87
2019-05-17T09:39:32.370Z,18.37
2019-05-17T09:42:04.327Z,18.73
2019-05-17T09:44:40.406Z,19.40
2019-05-17T09:47:12.635Z,19.00
2019-05-17T09:49:44.696Z,19.15
2019-05-17T09:52:19.860Z,20.12
2019-05-17T09:54:51.666Z,19.25
2019-05-17T09:57:23.634Z,20.25
2019-05-17T09:59:56.074Z,19.90
2019-05-17T10:02:44.522Z,19.98
2019-05-17T10:05:20.164Z,18.02
2019-05-17T10:07:52.137Z,20.65
2019-05-17T10:10:28.096Z,19.50
2019-05-17T10:13:14.085Z,20.40
2019-05-17T10:15:50.058Z,18.70
2019-05-17T10:18:21.568Z,18.37
2019-05-17T10:20:54.197Z,17.48
2019-05-17T10:23:29.906Z,18.32
2019-05-17T10:26:02.245Z,16.25
2019-05-17T10:28:34.662Z,14.90
2019-05-17T10:31:10.789Z,15.08
2019-05-17T10:33:40.595Z,13.95
2019-05-17T10:36:13.067Z,13.83
2019-05-17T10:38:44.762Z,14.58
2019-05-17T10:41:20.239Z,14.05
2019-05-17T10:43:51.925Z,15.20
2019-05-17T10:46:23.529Z,13.65
2019-05-17T10:48:56.880Z,14.28
2019-05-17T10:51:30.103Z,13.62
2019-05-17T10:54:04.376Z,13.58
2019-05-17T10:56:35.371Z,11.95
2019-05-17T10:59:09.809Z,12.75
2019-05-17T11:01:41.664Z,13.65
2019-05-17T11:04:13.983Z,13.28
2019-05-17T11:06:45.583Z,12.60
2019-05-17T11:16:50.737Z,15.68
2019-05-17T11:23:32.713Z,16.97
2019-05-17T11:30:22.899Z,15.53
2019-05-17T11:33:41.790Z,14.03
2019-05-17T11:37:27.347Z,13.32
2019-05-17T11:41:51.722Z,12.40
2019-05-17T11:44:01.013Z,12.30
2019-05-17T11:47:00.563Z,11.95
2019-05-17T11:49:58.849Z,12.50
2019-05-17T11:52:32.708Z,12.37
2019-05-17T11:55:05.684Z,12.20
2019-05-17T11:57:37.715Z,12.95
2019-05-17T12:00:11.417Z,12.53
2019-05-17T12:02:43.792Z,12.20
2019-05-17T12:05:15.591Z,12.20
2019-05-17T12:07:47.392Z,12.73
2019-05-17T12:10:19.690Z,12.23
2019-05-17T12:12:51.158Z,12.03
2019-05-17T12:15:43.286Z,12.43
2019-05-17T12:18:00.179Z,12.70
2019-05-17T12:20:32.672Z,12.80
2019-05-17T12:23:04.223Z,11.75
2019-05-17T12:25:35.837Z,12.78
2019-05-17T12:28:08.072Z,12.47
2019-05-17T12:30:40.138Z,12.07
2019-05-17T12:33:11.788Z,11.75
2019-05-17T12:35:44.379Z,11.48
2019-05-17T12:38:27.679Z,11.88
2019-05-17T12:41:00.217Z,11.83
2019-05-17T12:43:32.214Z,12.47
2019-05-17T12:46:03.941Z,11.80
2019-05-17T12:48:35.610Z,12.68
2019-05-17T12:51:07.711Z,13.45
2019-05-17T12:53:40.177Z,12.55
2019-05-17T12:56:13.500Z,12.90
2019-05-17T12:58:45.169Z,12.43
2019-05-17T13:01:17.581Z,12.55
2019-05-17T13:03:49.770Z,13.05
2019-05-17T13:06:22.179Z,13.95
2019-05-17T13:08:54.369Z,13.75
2019-05-17T13:11:25.826Z,13.85
2019-05-17T13:13:57.452Z,14.03
2019-05-17T13:16:30.974Z,13.80
2019-05-17T13:19:02.556Z,14.18
2019-05-17T13:21:34.210Z,14.58
2019-05-17T13:24:06.275Z,14.55
2019-05-17T13:26:38.613Z,14.35
2019-05-17T13:29:10.556Z,14.03
2019-05-17T13:31:43.353Z,15.70
2019-05-17T13:34:15.547Z,15.48
2019-05-17T13:36:47.391Z,15.90
2019-05-17T13:39:19.572Z,15.45
2019-05-17T13:41:54.240Z,17.00
2019-05-17T13:44:25.640Z,17.17
2019-05-17T13:46:57.954Z,17.12
2019-05-17T13:49:33.843Z,16.20
2019-05-17T13:52:08.820Z,18.10
2019-05-17T13:54:45.716Z,18.23
2019-05-17T13:57:18.139Z,17.60
2019-05-17T13:59:50.151Z,18.32
2019-05-17T14:02:22.188Z,18.35
2019-05-17T14:04:53.864Z,18.27
2019-05-17T14:07:27.311Z,17.23
2019-05-17T14:09:59.742Z,17.30
2019-05-17T14:12:31.540Z,15.65
2019-05-17T14:15:04.199Z,14.25
2019-05-17T14:17:35.954Z,14.68
2019-05-17T14:20:08.075Z,14.33
2019-05-17T14:22:40.104Z,13.65
2019-05-17T14:25:15.057Z,14.00
2019-05-17T14:27:47.024Z,13.80
2019-05-17T14:30:19.424Z,14.55
2019-05-17T14:32:51.252Z,16.10
2019-05-17T14:35:23.443Z,16.55
2019-05-17T14:37:55.032Z,16.05
2019-05-17T14:41:00.601Z,17.98
2019-05-17T14:43:00.534Z,18.32
2019-05-17T14:45:33.934Z,19.60
2019-05-17T14:48:06.030Z,19.67
2019-05-17T14:50:40.965Z,19.10
2019-05-17T14:53:13.166Z,18.85
2019-05-17T14:55:45.175Z,17.48
2019-05-17T14:58:16.977Z,18.25
2019-05-17T15:00:48.863Z,19.65
2019-05-17T15:03:20.522Z,16.87
2019-05-17T15:05:53.258Z,17.48
2019-05-17T15:08:25.651Z,16.80
2019-05-17T15:11:03.205Z,16.40
2019-05-17T15:13:44.678Z,18.35
2019-05-17T15:16:19.074Z,20.70
2019-05-17T15:19:13.354Z,21.93
2019-05-17T15:21:39.971Z,15.95
2019-05-17T15:24:16.526Z,16.50
2019-05-17T15:27:04.038Z,15.08
2019-05-17T15:29:22.705Z,15.83
2019-05-17T15:31:56.728Z,16.87
2019-05-17T15:34:29.173Z,16.20
2019-05-17T15:37:15.952Z,16.07
2019-05-17T15:40:11.843Z,15.30
2019-05-17T15:42:45.398Z,16.50
2019-05-17T15:45:21.519Z,15.68
2019-05-17T15:47:53.639Z,16.52
2019-05-17T15:50:26.241Z,17.37
2019-05-17T15:52:58.142Z,16.87
2019-05-17T15:55:33.460Z,17.92
2019-05-17T15:58:07.200Z,18.50
2019-05-17T16:00:43.259Z,19.17
2019-05-17T16:03:36.109Z,19.50
2019-05-17T16:06:08.639Z,19.23
2019-05-17T16:09:10.975Z,19.52
2019-05-17T16:11:49.603Z,20.00
2019-05-17T16:14:27.884Z,21.73
2019-05-17T16:17:05.845Z,20.12
2019-05-17T16:19:42.195Z,22.40
2019-05-17T16:22:14.756Z,22.13
2019-05-17T16:24:47.389Z,21.57
2019-05-17T16:27:23.687Z,22.15
2019-05-17T16:29:55.645Z,22.07
2019-05-17T16:32:28.006Z,22.45
2019-05-17T16:35:03.123Z,19.57
2019-05-17T16:40:48.464Z,20.50
2019-05-17T16:43:26.930Z,19.50
2019-05-17T16:46:11.844Z,21.27
2019-05-17T16:49:11.852Z,23.75
2019-05-17T16:51:46.423Z,19.42
2019-05-17T16:54:52.715Z,15.43
2019-05-17T16:57:32.530Z,14.15
2019-05-17T17:00:30.302Z,15.00
2019-05-17T17:03:44.276Z,14.65
2019-05-17T17:06:20.528Z,16.35
2019-05-17T17:09:08.411Z,16.05
2019-05-17T17:12:03.309Z,16.23
2019-05-17T17:14:42.851Z,15.72
2019-05-17T17:17:43.012Z,16.82
2019-05-17T17:23:48.852Z,16.93
2019-05-17T17:26:21.330Z,17.40
2019-05-17T17:28:53.623Z,18.57
2019-05-17T17:31:27.037Z,19.55
2019-05-17T17:34:31.753Z,30.52
2019-05-17T17:37:04.614Z,22.17
2019-05-17T17:39:36.880Z,21.52
2019-05-17T17:42:10.100Z,17.27
2019-05-17T17:44:41.900Z,17.92
2019-05-17T17:47:32.930Z,16.73
2019-05-17T17:50:27.104Z,15.65
2019-05-17T17:53:20.625Z,15.13
2019-05-17T17:56:03.782Z,14.98
2019-05-17T17:58:36.082Z,13.83
2019-05-17T18:01:07.839Z,14.73
2019-05-17T18:03:56.926Z,14.98
2019-05-17T18:06:35.717Z,15.15
2019-05-17T18:09:18.880Z,14.73
2019-05-17T18:11:53.610Z,15.05
2019-05-17T18:14:42.794Z,15.72
2019-05-17T18:22:24.274Z,14.73
2019-05-17T18:24:45.613Z,16.57
2019-05-17T18:27:22.684Z,19.05
2019-05-17T18:31:12.669Z,17.37
2019-05-17T18:33:51.962Z,17.62
2019-05-17T18:36:24.485Z,16.48
2019-05-17T18:38:58.245Z,18.77
2019-05-17T18:41:37.598Z,16.60
2019-05-17T18:44:06.952Z,15.43
2019-05-17T18:46:40.818Z,14.03
2019-05-17T18:49:13.458Z,14.55
2019-05-17T18:51:45.731Z,14.80
2019-05-17T18:54:19.305Z,16.30
2019-05-17T18:56:53.182Z,15.60
2019-05-17T18:59:27.326Z,15.35
2019-05-17T19:02:01.805Z,9.88
2019-05-17T19:04:33.938Z,12.73
2019-05-17T19:07:08.602Z,11.40
2019-05-17T19:09:56.465Z,10.75
2019-05-17T19:12:19.365Z,10.88
2019-05-17T19:15:00.511Z,11.08
2019-05-17T19:17:31.410Z,13.53
2019-05-17T19:20:03.310Z,10.25
2019-05-17T19:22:38.833Z,11.63
2019-05-17T19:25:15.080Z,8.63
2019-05-17T19:27:46.620Z,5.80
2019-05-17T19:30:22.612Z,5.37
2019-05-17T19:32:54.673Z,4.30
2019-05-17T19:35:26.971Z,3.83
2019-05-17T19:37:58.680Z,3.90
2019-05-17T19:40:31.114Z,3.92
2019-05-17T19:43:03.478Z,4.03
2019-05-17T19:45:36.564Z,4.53
2019-05-17T19:48:08.294Z,4.83
2019-05-17T19:50:40.456Z,5.00
2019-05-17T19:53:15.137Z,5.35
2019-05-17T19:55:47.268Z,4.87
2019-05-17T19:58:19.399Z,5.22
2019-05-17T20:00:50.840Z,5.87
2019-05-17T20:03:22.434Z,5.75
2019-05-17T20:05:54.464Z,6.65
2019-05-17T20:08:26.158Z,5.78
2019-05-17T20:10:58.179Z,5.50
2019-05-17T20:13:33.665Z,5.05
2019-05-17T20:16:05.984Z,4.60
2019-05-17T20:18:38.361Z,3.70
2019-05-17T20:21:14.644Z,3.40
2019-05-17T20:23:47.102Z,3.15
2019-05-17T20:26:18.708Z,3.22
2019-05-17T20:28:53.928Z,3.02
2019-05-17T20:31:26.762Z,3.00
2019-05-17T20:33:58.334Z,3.10
2019-05-17T20:36:50.954Z,3.42
2019-05-17T20:39:26.579Z,3.65
2019-05-17T20:42:01.208Z,3.22
2019-05-17T20:44:34.186Z,3.90
2019-05-17T20:47:09.596Z,4.17
2019-05-17T20:49:44.280Z,4.97
2019-05-17T20:52:16.643Z,5.62
2019-05-17T20:54:49.703Z,5.53
2019-05-17T20:57:29.263Z,5.80
2019-05-17T21:00:01.634Z,5.97
2019-05-17T21:02:33.608Z,5.67
2019-05-17T21:05:06.087Z,6.60
2019-05-17T21:07:38.004Z,4.53
2019-05-17T21:10:10.803Z,4.20
2019-05-17T21:12:45.303Z,3.80
2019-05-17T21:15:17.524Z,3.42
2019-05-17T21:17:49.638Z,3.30
2019-05-17T21:20:21.235Z,3.62
2019-05-17T21:22:53.341Z,4.15
2019-05-17T21:25:25.383Z,4.55
2019-05-17T21:27:57.149Z,5.90
2019-05-17T21:30:29.073Z,6.35
2019-05-17T21:33:01.158Z,6.65
2019-05-17T21:35:34.725Z,7.08
2019-05-17T21:38:06.802Z,7.08
2019-05-17T21:40:43.305Z,7.37
2019-05-17T21:43:18.135Z,7.58
2019-05-17T21:46:02.550Z,7.42
2019-05-17T21:48:24.154Z,8.68
2019-05-17T21:50:56.411Z,9.10
2019-05-17T21:53:27.930Z,9.45
2019-05-17T21:56:00.224Z,9.93
2019-05-17T21:58:53.055Z,11.78
2019-05-17T22:01:27.269Z,12.20
2019-05-17T22:03:59.554Z,11.95
2019-05-17T22:06:31.662Z,12.85
2019-05-17T22:09:04.829Z,12.88
2019-05-17T22:11:38.527Z,14.00
2019-05-17T22:14:10.582Z,13.65
2019-05-17T22:16:42.600Z,13.93
2019-05-17T22:19:14.738Z,14.38
2019-05-17T22:21:46.301Z,14.47
2019-05-17T22:24:18.491Z,14.73
2019-05-17T22:26:50.597Z,15.32
2019-05-17T22:29:22.751Z,15.15
2019-05-17T22:31:54.825Z,14.53
2019-05-17T22:34:26.398Z,14.80
2019-05-17T22:36:58.722Z,15.15
2019-05-17T22:39:30.754Z,15.25
2019-05-17T22:42:02.854Z,14.58
2019-05-17T22:44:35.285Z,14.80
2019-05-17T22:47:07.019Z,14.55
2019-05-17T22:49:38.626Z,15.70
2019-05-17T22:52:10.583Z,15.80
2019-05-17T22:54:42.206Z,15.95
2019-05-17T22:57:14.718Z,16.27
2019-05-17T22:59:46.735Z,15.43
2019-05-17T23:02:18.680Z,15.75
2019-05-17T23:04:50.616Z,16.05
2019-05-17T23:07:22.167Z,15.80
2019-05-17T23:09:54.496Z,16.50
2019-05-17T23:12:26.699Z,16.60
2019-05-17T23:14:58.737Z,16.77
2019-05-17T23:17:31.101Z,15.68
2019-05-17T23:20:02.903Z,15.72
2019-05-17T23:22:35.012Z,16.30
2019-05-17T23:25:07.909Z,15.53
2019-05-17T23:27:39.537Z,15.30
2019-05-17T23:30:11.608Z,13.43
2019-05-17T23:32:43.591Z,14.05
2019-05-17T23:35:16.042Z,14.25
2019-05-17T23:37:47.969Z,13.23
2019-05-17T23:40:20.240Z,13.38
2019-05-17T23:42:51.997Z,13.38
2019-05-17T23:45:24.248Z,13.43
2019-05-17T23:47:56.582Z,12.37
2019-05-17T23:50:28.536Z,12.53
2019-05-17T23:53:00.104Z,12.43
2019-05-17T23:55:32.280Z,10.77
2019-05-17T23:58:04.439Z,11.93
